Tajima Airport

About
Name: Tajima Airport
Identifier:  TJH/RJBT
Operator:  Government
Public/Private:  Public
Local Time:  21. Sep 17:46 JST
Description: Tajima Airport, also known as Kounotori Tajima Airport is an airport 2.6 NM southwest of Toyooka, Hyogo Prefecture, Japan.
Source: Wikipedia
Location
Tajima
  Japan

Runways
Identifier Length (m/ft) Surface
01/19 1,200/3,937 Asphalt concrete
Statistics
Flights per Day:
3 flights
Distance: 100km (62mi)
Flights delayed:
87% (0 flights per day delayed)
Delay Average: 4 minutes
Current Weather
 18 C (Humidity: 100%)
  2kt (3km/h / 2mph) from 220°
  Few clouds at 0 feet (0 meter)
  Scattered clouds at 200 feet (60 meter)
  Broken clouds at 700 feet (213 meter)
  1km (0 mi.)
 Patches of Fog
 METAR RJBT 210800Z 22002KT 1500 -SHRA BCFG FEW000 SCT002 BKN007 18/18 Q1017

Current Flights

Arrivals
Number Arrival From Airline
Cancelled JC2323 17:35  Osaka  JAL Express

Current Delays

Departures
N/A
Arrivals
N/A

Destinations

Top Destinations
Airport Flights
per week
Seats
per week
  Osaka (ITM) 22 302 3 43

Airlines & Planes

Top Airlines
Airline Flights
per Day
Seats
per Day
  Japan Air Commuter 3 43
Top Plane Types
Model Flights Seats
ATR 42-600 3.3/day 43/day 43.2